sensor_id;sensor_type;location;lat;lon;timestamp;P1;durP1;ratioP1;P2;durP2;ratioP2
49392;SDS011;35268;42.642;23.308;2022-12-24T00:00:15;33.72;;;18.42;;
49392;SDS011;35268;42.642;23.308;2022-12-24T00:03:01;36.47;;;17.48;;
49392;SDS011;35268;42.642;23.308;2022-12-24T00:05:26;30.52;;;16.30;;
49392;SDS011;35268;42.642;23.308;2022-12-24T00:07:52;31.15;;;17.20;;
49392;SDS011;35268;42.642;23.308;2022-12-24T00:10:17;36.17;;;17.15;;
49392;SDS011;35268;42.642;23.308;2022-12-24T00:12:43;40.65;;;17.33;;
49392;SDS011;35268;42.642;23.308;2022-12-24T00:15:09;44.13;;;17.42;;
49392;SDS011;35268;42.642;23.308;2022-12-24T00:17:35;35.63;;;18.27;;
49392;SDS011;35268;42.642;23.308;2022-12-24T00:20:00;43.35;;;18.60;;
49392;SDS011;35268;42.642;23.308;2022-12-24T00:22:26;47.25;;;20.02;;
49392;SDS011;35268;42.642;23.308;2022-12-24T00:24:51;45.35;;;20.45;;
49392;SDS011;35268;42.642;23.308;2022-12-24T00:27:17;34.25;;;15.27;;
49392;SDS011;35268;42.642;23.308;2022-12-24T00:29:42;28.55;;;14.23;;
49392;SDS011;35268;42.642;23.308;2022-12-24T00:32:08;29.05;;;14.43;;
49392;SDS011;35268;42.642;23.308;2022-12-24T00:34:37;26.02;;;12.95;;
49392;SDS011;35268;42.642;23.308;2022-12-24T00:37:04;25.80;;;13.40;;
49392;SDS011;35268;42.642;23.308;2022-12-24T00:39:30;29.77;;;14.73;;
49392;SDS011;35268;42.642;23.308;2022-12-24T00:41:56;28.05;;;14.85;;
49392;SDS011;35268;42.642;23.308;2022-12-24T00:44:21;27.65;;;13.85;;
49392;SDS011;35268;42.642;23.308;2022-12-24T00:46:47;27.15;;;13.88;;
49392;SDS011;35268;42.642;23.308;2022-12-24T00:49:12;29.02;;;13.07;;
49392;SDS011;35268;42.642;23.308;2022-12-24T00:51:38;26.88;;;14.13;;
49392;SDS011;35268;42.642;23.308;2022-12-24T00:54:04;26.02;;;13.82;;
49392;SDS011;35268;42.642;23.308;2022-12-24T00:56:30;24.83;;;12.25;;
49392;SDS011;35268;42.642;23.308;2022-12-24T00:58:55;28.60;;;12.63;;
49392;SDS011;35268;42.642;23.308;2022-12-24T01:01:21;25.15;;;13.00;;
49392;SDS011;35268;42.642;23.308;2022-12-24T01:03:47;22.17;;;12.32;;
49392;SDS011;35268;42.642;23.308;2022-12-24T01:06:14;33.25;;;12.32;;
49392;SDS011;35268;42.642;23.308;2022-12-24T01:08:42;29.48;;;13.27;;
49392;SDS011;35268;42.642;23.308;2022-12-24T01:11:08;27.08;;;12.80;;
49392;SDS011;35268;42.642;23.308;2022-12-24T01:13:34;22.65;;;12.50;;
49392;SDS011;35268;42.642;23.308;2022-12-24T01:16:00;24.88;;;12.13;;
49392;SDS011;35268;42.642;23.308;2022-12-24T01:18:27;28.92;;;13.70;;
49392;SDS011;35268;42.642;23.308;2022-12-24T01:20:59;27.30;;;13.60;;
49392;SDS011;35268;42.642;23.308;2022-12-24T01:23:26;25.83;;;12.23;;
49392;SDS011;35268;42.642;23.308;2022-12-24T01:25:53;23.90;;;10.95;;
49392;SDS011;35268;42.642;23.308;2022-12-24T01:28:19;30.23;;;13.48;;
49392;SDS011;35268;42.642;23.308;2022-12-24T01:30:45;29.15;;;12.00;;
49392;SDS011;35268;42.642;23.308;2022-12-24T01:33:11;21.25;;;11.82;;
49392;SDS011;35268;42.642;23.308;2022-12-24T01:35:41;26.35;;;12.80;;
49392;SDS011;35268;42.642;23.308;2022-12-24T01:38:07;25.10;;;12.05;;
49392;SDS011;35268;42.642;23.308;2022-12-24T01:40:35;23.55;;;11.73;;
49392;SDS011;35268;42.642;23.308;2022-12-24T01:43:21;20.95;;;11.05;;
49392;SDS011;35268;42.642;23.308;2022-12-24T01:57:05;23.10;;;11.20;;
49392;SDS011;35268;42.642;23.308;2022-12-24T01:59:33;22.90;;;10.38;;
49392;SDS011;35268;42.642;23.308;2022-12-24T02:02:02;19.92;;;10.32;;
49392;SDS011;35268;42.642;23.308;2022-12-24T02:04:39;20.73;;;11.18;;
49392;SDS011;35268;42.642;23.308;2022-12-24T02:07:11;27.92;;;12.27;;
49392;SDS011;35268;42.642;23.308;2022-12-24T02:09:36;25.63;;;12.73;;
49392;SDS011;35268;42.642;23.308;2022-12-24T02:12:03;32.30;;;14.65;;
49392;SDS011;35268;42.642;23.308;2022-12-24T02:14:30;40.20;;;16.48;;
49392;SDS011;35268;42.642;23.308;2022-12-24T02:17:01;28.55;;;13.05;;
49392;SDS011;35268;42.642;23.308;2022-12-24T02:22:14;24.05;;;12.10;;
49392;SDS011;35268;42.642;23.308;2022-12-24T02:30:10;27.35;;;12.98;;
49392;SDS011;35268;42.642;23.308;2022-12-24T02:32:52;25.25;;;12.15;;
49392;SDS011;35268;42.642;23.308;2022-12-24T02:38:16;26.40;;;12.05;;
49392;SDS011;35268;42.642;23.308;2022-12-24T02:40:51;30.00;;;13.45;;
49392;SDS011;35268;42.642;23.308;2022-12-24T02:43:24;25.35;;;13.75;;
49392;SDS011;35268;42.642;23.308;2022-12-24T02:45:55;29.48;;;13.20;;
49392;SDS011;35268;42.642;23.308;2022-12-24T02:48:23;34.08;;;12.77;;
49392;SDS011;35268;42.642;23.308;2022-12-24T02:50:58;25.58;;;12.93;;
49392;SDS011;35268;42.642;23.308;2022-12-24T02:53:31;28.13;;;10.82;;
49392;SDS011;35268;42.642;23.308;2022-12-24T02:58:47;18.55;;;9.63;;
49392;SDS011;35268;42.642;23.308;2022-12-24T03:04:31;22.05;;;10.07;;
49392;SDS011;35268;42.642;23.308;2022-12-24T03:07:39;20.35;;;9.43;;
49392;SDS011;35268;42.642;23.308;2022-12-24T03:10:19;33.38;;;14.55;;
49392;SDS011;35268;42.642;23.308;2022-12-24T03:12:51;18.08;;;10.43;;
49392;SDS011;35268;42.642;23.308;2022-12-24T03:15:22;19.02;;;10.10;;
49392;SDS011;35268;42.642;23.308;2022-12-24T03:17:50;18.70;;;8.98;;
49392;SDS011;35268;42.642;23.308;2022-12-24T03:20:19;31.88;;;13.38;;
49392;SDS011;35268;42.642;23.308;2022-12-24T03:22:50;52.33;;;21.95;;
49392;SDS011;35268;42.642;23.308;2022-12-24T03:25:16;55.92;;;22.10;;
49392;SDS011;35268;42.642;23.308;2022-12-24T03:27:42;49.20;;;20.67;;
49392;SDS011;35268;42.642;23.308;2022-12-24T03:30:12;48.30;;;20.65;;
49392;SDS011;35268;42.642;23.308;2022-12-24T03:32:38;39.78;;;17.85;;
49392;SDS011;35268;42.642;23.308;2022-12-24T03:35:04;27.25;;;13.70;;
49392;SDS011;35268;42.642;23.308;2022-12-24T03:37:31;23.35;;;12.38;;
49392;SDS011;35268;42.642;23.308;2022-12-24T03:39:57;24.02;;;11.48;;
49392;SDS011;35268;42.642;23.308;2022-12-24T03:42:22;21.10;;;9.40;;
49392;SDS011;35268;42.642;23.308;2022-12-24T03:44:48;19.23;;;10.05;;
49392;SDS011;35268;42.642;23.308;2022-12-24T03:47:13;16.23;;;8.82;;
49392;SDS011;35268;42.642;23.308;2022-12-24T03:49:39;25.13;;;9.70;;
49392;SDS011;35268;42.642;23.308;2022-12-24T03:52:05;18.75;;;9.80;;
49392;SDS011;35268;42.642;23.308;2022-12-24T03:54:30;19.48;;;10.45;;
49392;SDS011;35268;42.642;23.308;2022-12-24T03:56:56;24.70;;;11.07;;
49392;SDS011;35268;42.642;23.308;2022-12-24T03:59:21;21.55;;;11.88;;
49392;SDS011;35268;42.642;23.308;2022-12-24T04:01:47;22.95;;;12.38;;
49392;SDS011;35268;42.642;23.308;2022-12-24T04:04:12;21.92;;;12.52;;
49392;SDS011;35268;42.642;23.308;2022-12-24T04:06:38;23.48;;;12.40;;
49392;SDS011;35268;42.642;23.308;2022-12-24T04:09:03;22.38;;;11.65;;
49392;SDS011;35268;42.642;23.308;2022-12-24T04:11:29;20.90;;;11.55;;
49392;SDS011;35268;42.642;23.308;2022-12-24T04:13:56;24.90;;;13.10;;
49392;SDS011;35268;42.642;23.308;2022-12-24T04:16:21;27.40;;;13.98;;
49392;SDS011;35268;42.642;23.308;2022-12-24T04:18:47;28.50;;;14.63;;
49392;SDS011;35268;42.642;23.308;2022-12-24T04:21:13;32.05;;;15.63;;
49392;SDS011;35268;42.642;23.308;2022-12-24T04:23:39;27.52;;;13.50;;
49392;SDS011;35268;42.642;23.308;2022-12-24T04:26:06;28.85;;;15.43;;
49392;SDS011;35268;42.642;23.308;2022-12-24T04:28:33;30.95;;;15.45;;
49392;SDS011;35268;42.642;23.308;2022-12-24T04:31:00;30.67;;;15.50;;
49392;SDS011;35268;42.642;23.308;2022-12-24T04:33:27;25.95;;;14.40;;
49392;SDS011;35268;42.642;23.308;2022-12-24T04:35:53;24.98;;;13.75;;
49392;SDS011;35268;42.642;23.308;2022-12-24T04:38:20;26.02;;;12.90;;
49392;SDS011;35268;42.642;23.308;2022-12-24T04:40:46;23.60;;;11.77;;
49392;SDS011;35268;42.642;23.308;2022-12-24T04:43:11;26.92;;;12.40;;
49392;SDS011;35268;42.642;23.308;2022-12-24T04:45:37;25.33;;;12.77;;
49392;SDS011;35268;42.642;23.308;2022-12-24T04:48:02;22.55;;;10.68;;
49392;SDS011;35268;42.642;23.308;2022-12-24T04:50:28;33.42;;;13.82;;
49392;SDS011;35268;42.642;23.308;2022-12-24T04:52:53;21.80;;;10.77;;
49392;SDS011;35268;42.642;23.308;2022-12-24T04:55:19;20.60;;;10.43;;
49392;SDS011;35268;42.642;23.308;2022-12-24T04:57:44;26.25;;;10.73;;
49392;SDS011;35268;42.642;23.308;2022-12-24T05:00:10;25.05;;;12.25;;
49392;SDS011;35268;42.642;23.308;2022-12-24T05:02:35;19.48;;;11.32;;
49392;SDS011;35268;42.642;23.308;2022-12-24T05:05:01;21.15;;;10.10;;
49392;SDS011;35268;42.642;23.308;2022-12-24T05:07:27;17.08;;;8.52;;
49392;SDS011;35268;42.642;23.308;2022-12-24T05:09:53;16.95;;;7.20;;
49392;SDS011;35268;42.642;23.308;2022-12-24T05:12:18;30.65;;;11.00;;
49392;SDS011;35268;42.642;23.308;2022-12-24T05:14:44;30.58;;;13.18;;
49392;SDS011;35268;42.642;23.308;2022-12-24T05:17:09;38.78;;;13.40;;
49392;SDS011;35268;42.642;23.308;2022-12-24T05:19:35;33.55;;;14.38;;
49392;SDS011;35268;42.642;23.308;2022-12-24T05:22:00;43.55;;;16.48;;
49392;SDS011;35268;42.642;23.308;2022-12-24T05:24:44;43.67;;;13.90;;
49392;SDS011;35268;42.642;23.308;2022-12-24T05:27:28;43.63;;;16.58;;
49392;SDS011;35268;42.642;23.308;2022-12-24T05:29:54;42.22;;;16.15;;
49392;SDS011;35268;42.642;23.308;2022-12-24T05:32:19;37.90;;;17.85;;
49392;SDS011;35268;42.642;23.308;2022-12-24T05:34:45;34.95;;;15.77;;
49392;SDS011;35268;42.642;23.308;2022-12-24T05:37:10;34.58;;;16.88;;
49392;SDS011;35268;42.642;23.308;2022-12-24T05:39:36;36.88;;;17.50;;
49392;SDS011;35268;42.642;23.308;2022-12-24T05:42:01;34.40;;;16.13;;
49392;SDS011;35268;42.642;23.308;2022-12-24T05:44:26;27.08;;;15.93;;
49392;SDS011;35268;42.642;23.308;2022-12-24T05:46:52;31.95;;;15.52;;
49392;SDS011;35268;42.642;23.308;2022-12-24T05:49:17;28.55;;;15.30;;
49392;SDS011;35268;42.642;23.308;2022-12-24T05:51:43;32.85;;;15.93;;
49392;SDS011;35268;42.642;23.308;2022-12-24T05:54:08;26.85;;;14.55;;
49392;SDS011;35268;42.642;23.308;2022-12-24T05:56:34;35.53;;;15.18;;
49392;SDS011;35268;42.642;23.308;2022-12-24T05:58:59;28.77;;;13.43;;
49392;SDS011;35268;42.642;23.308;2022-12-24T06:01:24;24.35;;;12.55;;
49392;SDS011;35268;42.642;23.308;2022-12-24T06:03:51;25.67;;;12.10;;
49392;SDS011;35268;42.642;23.308;2022-12-24T06:06:24;23.90;;;12.65;;
49392;SDS011;35268;42.642;23.308;2022-12-24T06:08:52;25.27;;;12.48;;
49392;SDS011;35268;42.642;23.308;2022-12-24T06:11:20;32.30;;;14.32;;
49392;SDS011;35268;42.642;23.308;2022-12-24T06:13:47;48.28;;;19.48;;
49392;SDS011;35268;42.642;23.308;2022-12-24T06:16:14;40.78;;;18.02;;
49392;SDS011;35268;42.642;23.308;2022-12-24T06:18:41;49.63;;;21.88;;
49392;SDS011;35268;42.642;23.308;2022-12-24T06:21:07;42.83;;;21.02;;
49392;SDS011;35268;42.642;23.308;2022-12-24T06:23:34;42.72;;;19.85;;
49392;SDS011;35268;42.642;23.308;2022-12-24T06:26:01;41.92;;;19.40;;
49392;SDS011;35268;42.642;23.308;2022-12-24T06:28:28;43.83;;;19.17;;
49392;SDS011;35268;42.642;23.308;2022-12-24T06:30:55;51.25;;;21.10;;
49392;SDS011;35268;42.642;23.308;2022-12-24T06:33:21;48.53;;;20.30;;
49392;SDS011;35268;42.642;23.308;2022-12-24T06:35:46;38.92;;;20.10;;
49392;SDS011;35268;42.642;23.308;2022-12-24T06:38:12;33.63;;;18.88;;
49392;SDS011;35268;42.642;23.308;2022-12-24T06:40:39;43.42;;;19.80;;
49392;SDS011;35268;42.642;23.308;2022-12-24T06:43:06;42.47;;;19.45;;
49392;SDS011;35268;42.642;23.308;2022-12-24T06:45:31;40.78;;;19.80;;
49392;SDS011;35268;42.642;23.308;2022-12-24T06:47:57;45.72;;;20.83;;
49392;SDS011;35268;42.642;23.308;2022-12-24T06:50:23;42.90;;;19.90;;
49392;SDS011;35268;42.642;23.308;2022-12-24T06:52:49;43.50;;;19.52;;
49392;SDS011;35268;42.642;23.308;2022-12-24T06:55:14;38.38;;;19.05;;
49392;SDS011;35268;42.642;23.308;2022-12-24T06:57:40;37.40;;;18.52;;
49392;SDS011;35268;42.642;23.308;2022-12-24T07:00:06;43.13;;;18.48;;
49392;SDS011;35268;42.642;23.308;2022-12-24T07:02:33;38.20;;;20.15;;
49392;SDS011;35268;42.642;23.308;2022-12-24T07:04:58;38.92;;;19.27;;
49392;SDS011;35268;42.642;23.308;2022-12-24T07:07:24;35.75;;;18.60;;
49392;SDS011;35268;42.642;23.308;2022-12-24T07:09:49;45.85;;;19.00;;
49392;SDS011;35268;42.642;23.308;2022-12-24T07:12:14;42.03;;;21.48;;
49392;SDS011;35268;42.642;23.308;2022-12-24T07:14:40;39.30;;;19.95;;
49392;SDS011;35268;42.642;23.308;2022-12-24T07:17:05;34.70;;;18.70;;
49392;SDS011;35268;42.642;23.308;2022-12-24T07:19:31;38.15;;;19.35;;
49392;SDS011;35268;42.642;23.308;2022-12-24T07:21:56;38.60;;;17.85;;
49392;SDS011;35268;42.642;23.308;2022-12-24T07:24:21;33.08;;;18.05;;
49392;SDS011;35268;42.642;23.308;2022-12-24T07:26:47;32.05;;;17.52;;
49392;SDS011;35268;42.642;23.308;2022-12-24T07:29:12;35.33;;;18.10;;
49392;SDS011;35268;42.642;23.308;2022-12-24T07:31:38;34.63;;;17.15;;
49392;SDS011;35268;42.642;23.308;2022-12-24T07:34:03;30.58;;;16.15;;
49392;SDS011;35268;42.642;23.308;2022-12-24T07:36:29;31.38;;;16.58;;
49392;SDS011;35268;42.642;23.308;2022-12-24T07:38:54;31.73;;;15.00;;
49392;SDS011;35268;42.642;23.308;2022-12-24T07:41:20;29.42;;;17.00;;
49392;SDS011;35268;42.642;23.308;2022-12-24T07:43:46;34.38;;;16.88;;
49392;SDS011;35268;42.642;23.308;2022-12-24T07:46:11;29.92;;;15.23;;
49392;SDS011;35268;42.642;23.308;2022-12-24T07:48:37;24.67;;;14.27;;
49392;SDS011;35268;42.642;23.308;2022-12-24T07:51:02;36.40;;;14.65;;
49392;SDS011;35268;42.642;23.308;2022-12-24T07:53:28;32.13;;;16.08;;
49392;SDS011;35268;42.642;23.308;2022-12-24T07:55:54;38.10;;;15.70;;
49392;SDS011;35268;42.642;23.308;2022-12-24T07:58:19;31.23;;;16.13;;
49392;SDS011;35268;42.642;23.308;2022-12-24T08:00:45;31.85;;;16.08;;
49392;SDS011;35268;42.642;23.308;2022-12-24T08:03:15;27.90;;;16.15;;
49392;SDS011;35268;42.642;23.308;2022-12-24T08:05:44;30.63;;;16.25;;
49392;SDS011;35268;42.642;23.308;2022-12-24T08:08:10;39.25;;;17.00;;
49392;SDS011;35268;42.642;23.308;2022-12-24T08:10:37;34.70;;;17.88;;
49392;SDS011;35268;42.642;23.308;2022-12-24T08:13:03;38.05;;;18.27;;
49392;SDS011;35268;42.642;23.308;2022-12-24T08:15:29;33.03;;;16.50;;
49392;SDS011;35268;42.642;23.308;2022-12-24T08:17:54;38.17;;;18.92;;
49392;SDS011;35268;42.642;23.308;2022-12-24T08:20:20;40.90;;;20.45;;
49392;SDS011;35268;42.642;23.308;2022-12-24T08:22:45;34.85;;;19.23;;
49392;SDS011;35268;42.642;23.308;2022-12-24T08:25:10;37.53;;;21.23;;
49392;SDS011;35268;42.642;23.308;2022-12-24T08:27:36;43.33;;;20.25;;
49392;SDS011;35268;42.642;23.308;2022-12-24T08:30:02;43.92;;;20.88;;
49392;SDS011;35268;42.642;23.308;2022-12-24T08:32:29;39.38;;;19.20;;
49392;SDS011;35268;42.642;23.308;2022-12-24T08:34:54;43.65;;;20.45;;
49392;SDS011;35268;42.642;23.308;2022-12-24T08:37:19;53.83;;;20.80;;
49392;SDS011;35268;42.642;23.308;2022-12-24T08:39:45;43.00;;;21.70;;
49392;SDS011;35268;42.642;23.308;2022-12-24T08:42:10;44.72;;;21.80;;
49392;SDS011;35268;42.642;23.308;2022-12-24T08:44:36;44.00;;;20.40;;
49392;SDS011;35268;42.642;23.308;2022-12-24T08:47:01;37.67;;;17.95;;
49392;SDS011;35268;42.642;23.308;2022-12-24T08:49:26;28.80;;;15.57;;
49392;SDS011;35268;42.642;23.308;2022-12-24T08:51:52;54.33;;;17.80;;
49392;SDS011;35268;42.642;23.308;2022-12-24T08:54:17;35.60;;;16.80;;
49392;SDS011;35268;42.642;23.308;2022-12-24T08:56:43;35.83;;;14.63;;
49392;SDS011;35268;42.642;23.308;2022-12-24T08:59:09;39.00;;;16.33;;
49392;SDS011;35268;42.642;23.308;2022-12-24T09:01:36;44.92;;;20.40;;
49392;SDS011;35268;42.642;23.308;2022-12-24T09:04:02;47.53;;;21.02;;
49392;SDS011;35268;42.642;23.308;2022-12-24T09:06:28;46.83;;;20.23;;
49392;SDS011;35268;42.642;23.308;2022-12-24T09:08:53;48.80;;;21.42;;
49392;SDS011;35268;42.642;23.308;2022-12-24T09:11:19;46.15;;;21.15;;
49392;SDS011;35268;42.642;23.308;2022-12-24T09:13:45;43.95;;;22.52;;
49392;SDS011;35268;42.642;23.308;2022-12-24T09:16:11;44.63;;;21.80;;
49392;SDS011;35268;42.642;23.308;2022-12-24T09:18:37;39.67;;;20.98;;
49392;SDS011;35268;42.642;23.308;2022-12-24T09:21:32;42.63;;;21.48;;
49392;SDS011;35268;42.642;23.308;2022-12-24T09:23:57;43.17;;;22.85;;
49392;SDS011;35268;42.642;23.308;2022-12-24T09:26:25;45.72;;;20.90;;
49392;SDS011;35268;42.642;23.308;2022-12-24T09:28:51;47.88;;;21.40;;
49392;SDS011;35268;42.642;23.308;2022-12-24T09:31:17;43.97;;;22.13;;
49392;SDS011;35268;42.642;23.308;2022-12-24T09:33:44;43.78;;;21.50;;
49392;SDS011;35268;42.642;23.308;2022-12-24T09:36:11;41.83;;;22.15;;
49392;SDS011;35268;42.642;23.308;2022-12-24T09:38:37;48.83;;;21.27;;
49392;SDS011;35268;42.642;23.308;2022-12-24T09:41:14;45.58;;;23.15;;
49392;SDS011;35268;42.642;23.308;2022-12-24T09:43:52;52.55;;;23.45;;
49392;SDS011;35268;42.642;23.308;2022-12-24T09:51:27;44.08;;;23.52;;
49392;SDS011;35268;42.642;23.308;2022-12-24T09:56:46;49.47;;;23.85;;
49392;SDS011;35268;42.642;23.308;2022-12-24T09:59:17;38.90;;;22.83;;
49392;SDS011;35268;42.642;23.308;2022-12-24T10:01:46;41.83;;;21.60;;
49392;SDS011;35268;42.642;23.308;2022-12-24T10:04:15;52.58;;;23.52;;
49392;SDS011;35268;42.642;23.308;2022-12-24T10:09:36;44.17;;;21.55;;
49392;SDS011;35268;42.642;23.308;2022-12-24T10:12:21;45.40;;;20.70;;
49392;SDS011;35268;42.642;23.308;2022-12-24T10:15:09;44.97;;;18.85;;
49392;SDS011;35268;42.642;23.308;2022-12-24T10:17:59;35.70;;;17.98;;
49392;SDS011;35268;42.642;23.308;2022-12-24T10:20:55;32.80;;;18.15;;
49392;SDS011;35268;42.642;23.308;2022-12-24T10:26:11;38.42;;;15.23;;
49392;SDS011;35268;42.642;23.308;2022-12-24T10:31:44;35.30;;;17.63;;
49392;SDS011;35268;42.642;23.308;2022-12-24T10:34:22;32.17;;;15.13;;
49392;SDS011;35268;42.642;23.308;2022-12-24T10:36:50;27.58;;;14.55;;
49392;SDS011;35268;42.642;23.308;2022-12-24T10:39:17;39.55;;;15.95;;
49392;SDS011;35268;42.642;23.308;2022-12-24T10:41:47;34.42;;;17.10;;
49392;SDS011;35268;42.642;23.308;2022-12-24T10:44:19;38.65;;;20.00;;
49392;SDS011;35268;42.642;23.308;2022-12-24T10:46:47;51.55;;;20.42;;
49392;SDS011;35268;42.642;23.308;2022-12-24T10:49:24;54.65;;;24.63;;
49392;SDS011;35268;42.642;23.308;2022-12-24T10:52:10;62.75;;;29.02;;
49392;SDS011;35268;42.642;23.308;2022-12-24T10:54:39;66.85;;;32.67;;
49392;SDS011;35268;42.642;23.308;2022-12-24T10:57:32;71.03;;;36.72;;
49392;SDS011;35268;42.642;23.308;2022-12-24T10:59:59;84.65;;;38.00;;
49392;SDS011;35268;42.642;23.308;2022-12-24T11:02:27;92.25;;;38.33;;
49392;SDS011;35268;42.642;23.308;2022-12-24T11:04:56;84.45;;;42.78;;
49392;SDS011;35268;42.642;23.308;2022-12-24T11:07:24;91.60;;;41.33;;
49392;SDS011;35268;42.642;23.308;2022-12-24T11:10:03;88.03;;;42.47;;
49392;SDS011;35268;42.642;23.308;2022-12-24T11:12:32;73.25;;;40.03;;
49392;SDS011;35268;42.642;23.308;2022-12-24T11:15:02;94.57;;;42.45;;
49392;SDS011;35268;42.642;23.308;2022-12-24T11:17:31;86.82;;;41.10;;
49392;SDS011;35268;42.642;23.308;2022-12-24T11:19:57;86.80;;;38.85;;
49392;SDS011;35268;42.642;23.308;2022-12-24T11:22:27;85.20;;;42.30;;
49392;SDS011;35268;42.642;23.308;2022-12-24T11:25:05;73.10;;;37.83;;
49392;SDS011;35268;42.642;23.308;2022-12-24T11:27:43;71.78;;;38.72;;
49392;SDS011;35268;42.642;23.308;2022-12-24T11:32:39;80.30;;;38.67;;
49392;SDS011;35268;42.642;23.308;2022-12-24T11:35:31;78.28;;;38.22;;
49392;SDS011;35268;42.642;23.308;2022-12-24T11:40:39;66.95;;;33.17;;
49392;SDS011;35268;42.642;23.308;2022-12-24T11:43:11;82.25;;;39.20;;
49392;SDS011;35268;42.642;23.308;2022-12-24T11:45:46;68.90;;;37.00;;
49392;SDS011;35268;42.642;23.308;2022-12-24T11:50:54;76.93;;;39.60;;
49392;SDS011;35268;42.642;23.308;2022-12-24T11:53:45;83.45;;;40.20;;
49392;SDS011;35268;42.642;23.308;2022-12-24T12:04:40;74.43;;;34.67;;
49392;SDS011;35268;42.642;23.308;2022-12-24T12:07:17;75.03;;;37.45;;
49392;SDS011;35268;42.642;23.308;2022-12-24T12:09:53;79.28;;;38.33;;
49392;SDS011;35268;42.642;23.308;2022-12-24T12:12:37;71.07;;;37.75;;
49392;SDS011;35268;42.642;23.308;2022-12-24T12:17:54;85.05;;;39.05;;
49392;SDS011;35268;42.642;23.308;2022-12-24T12:22:57;91.65;;;41.60;;
49392;SDS011;35268;42.642;23.308;2022-12-24T12:25:31;82.75;;;38.72;;
49392;SDS011;35268;42.642;23.308;2022-12-24T12:28:06;76.18;;;41.05;;
49392;SDS011;35268;42.642;23.308;2022-12-24T12:30:39;81.95;;;41.03;;
49392;SDS011;35268;42.642;23.308;2022-12-24T12:36:15;83.32;;;38.65;;
49392;SDS011;35268;42.642;23.308;2022-12-24T12:38:45;77.60;;;38.35;;
49392;SDS011;35268;42.642;23.308;2022-12-24T12:41:53;79.65;;;39.67;;
49392;SDS011;35268;42.642;23.308;2022-12-24T12:47:29;76.78;;;40.38;;
49392;SDS011;35268;42.642;23.308;2022-12-24T12:58:42;76.57;;;37.95;;
49392;SDS011;35268;42.642;23.308;2022-12-24T13:01:22;82.88;;;40.28;;
49392;SDS011;35268;42.642;23.308;2022-12-24T13:09:28;84.80;;;40.90;;
49392;SDS011;35268;42.642;23.308;2022-12-24T13:14:34;101.05;;;45.22;;
49392;SDS011;35268;42.642;23.308;2022-12-24T13:22:23;89.55;;;44.45;;
49392;SDS011;35268;42.642;23.308;2022-12-24T13:24:52;80.65;;;41.40;;
49392;SDS011;35268;42.642;23.308;2022-12-24T13:27:22;82.60;;;43.03;;
49392;SDS011;35268;42.642;23.308;2022-12-24T13:29:55;82.05;;;43.50;;
49392;SDS011;35268;42.642;23.308;2022-12-24T13:35:03;83.78;;;41.78;;
49392;SDS011;35268;42.642;23.308;2022-12-24T13:37:48;85.65;;;42.80;;
49392;SDS011;35268;42.642;23.308;2022-12-24T13:40:22;87.07;;;43.63;;
49392;SDS011;35268;42.642;23.308;2022-12-24T13:47:59;82.15;;;45.13;;
49392;SDS011;35268;42.642;23.308;2022-12-24T13:53:05;95.28;;;47.42;;
49392;SDS011;35268;42.642;23.308;2022-12-24T13:55:57;107.82;;;49.67;;
49392;SDS011;35268;42.642;23.308;2022-12-24T13:58:24;84.68;;;45.40;;
49392;SDS011;35268;42.642;23.308;2022-12-24T14:00:53;95.35;;;45.53;;
49392;SDS011;35268;42.642;23.308;2022-12-24T14:05:49;99.30;;;46.42;;
49392;SDS011;35268;42.642;23.308;2022-12-24T14:16:04;69.15;;;37.42;;
49392;SDS011;35268;42.642;23.308;2022-12-24T14:18:32;74.70;;;39.58;;
49392;SDS011;35268;42.642;23.308;2022-12-24T14:21:02;78.03;;;41.35;;
49392;SDS011;35268;42.642;23.308;2022-12-24T14:26:00;79.82;;;41.83;;
49392;SDS011;35268;42.642;23.308;2022-12-24T14:28:31;72.80;;;39.35;;
49392;SDS011;35268;42.642;23.308;2022-12-24T14:31:01;78.72;;;40.78;;
49392;SDS011;35268;42.642;23.308;2022-12-24T14:33:29;84.25;;;40.75;;
49392;SDS011;35268;42.642;23.308;2022-12-24T14:35:55;85.15;;;39.60;;
49392;SDS011;35268;42.642;23.308;2022-12-24T14:38:22;78.85;;;40.50;;
49392;SDS011;35268;42.642;23.308;2022-12-24T14:40:54;85.78;;;39.83;;
49392;SDS011;35268;42.642;23.308;2022-12-24T14:43:26;66.75;;;33.03;;
49392;SDS011;35268;42.642;23.308;2022-12-24T14:51:44;42.90;;;20.92;;
49392;SDS011;35268;42.642;23.308;2022-12-24T14:54:30;48.95;;;18.85;;
49392;SDS011;35268;42.642;23.308;2022-12-24T14:57:05;41.23;;;17.87;;
49392;SDS011;35268;42.642;23.308;2022-12-24T14:59:55;29.17;;;13.95;;
49392;SDS011;35268;42.642;23.308;2022-12-24T15:05:03;28.45;;;12.07;;
49392;SDS011;35268;42.642;23.308;2022-12-24T15:07:35;29.83;;;12.93;;
49392;SDS011;35268;42.642;23.308;2022-12-24T15:10:04;33.53;;;12.90;;
49392;SDS011;35268;42.642;23.308;2022-12-24T15:12:32;27.83;;;12.30;;
49392;SDS011;35268;42.642;23.308;2022-12-24T15:14:58;21.90;;;11.68;;
49392;SDS011;35268;42.642;23.308;2022-12-24T15:17:24;21.63;;;11.15;;
49392;SDS011;35268;42.642;23.308;2022-12-24T15:19:51;23.40;;;11.27;;
49392;SDS011;35268;42.642;23.308;2022-12-24T15:22:22;26.65;;;13.30;;
49392;SDS011;35268;42.642;23.308;2022-12-24T15:24:52;31.98;;;15.48;;
49392;SDS011;35268;42.642;23.308;2022-12-24T15:27:19;28.02;;;14.52;;
49392;SDS011;35268;42.642;23.308;2022-12-24T15:29:47;29.63;;;14.15;;
49392;SDS011;35268;42.642;23.308;2022-12-24T15:32:15;24.63;;;13.35;;
49392;SDS011;35268;42.642;23.308;2022-12-24T15:34:44;24.80;;;11.70;;
49392;SDS011;35268;42.642;23.308;2022-12-24T15:37:19;31.30;;;15.32;;
49392;SDS011;35268;42.642;23.308;2022-12-24T15:42:33;19.45;;;10.95;;
49392;SDS011;35268;42.642;23.308;2022-12-24T15:47:32;21.88;;;11.27;;
49392;SDS011;35268;42.642;23.308;2022-12-24T15:50:03;25.05;;;10.20;;
49392;SDS011;35268;42.642;23.308;2022-12-24T15:52:39;18.05;;;8.98;;
49392;SDS011;35268;42.642;23.308;2022-12-24T15:55:22;18.20;;;8.20;;
49392;SDS011;35268;42.642;23.308;2022-12-24T15:57:59;14.35;;;7.45;;
49392;SDS011;35268;42.642;23.308;2022-12-24T16:00:26;19.30;;;8.73;;
49392;SDS011;35268;42.642;23.308;2022-12-24T16:03:08;18.48;;;7.95;;
49392;SDS011;35268;42.642;23.308;2022-12-24T16:05:44;19.23;;;9.18;;
49392;SDS011;35268;42.642;23.308;2022-12-24T16:16:04;20.90;;;9.23;;
49392;SDS011;35268;42.642;23.308;2022-12-24T16:18:44;26.80;;;10.98;;
49392;SDS011;35268;42.642;23.308;2022-12-24T16:21:20;15.45;;;5.82;;
49392;SDS011;35268;42.642;23.308;2022-12-24T16:23:51;6.43;;;3.50;;
49392;SDS011;35268;42.642;23.308;2022-12-24T16:26:18;5.75;;;3.22;;
49392;SDS011;35268;42.642;23.308;2022-12-24T16:28:44;4.18;;;1.83;;
49392;SDS011;35268;42.642;23.308;2022-12-24T16:31:19;2.40;;;1.33;;
49392;SDS011;35268;42.642;23.308;2022-12-24T16:33:54;3.10;;;1.67;;
49392;SDS011;35268;42.642;23.308;2022-12-24T16:36:21;2.50;;;1.55;;
49392;SDS011;35268;42.642;23.308;2022-12-24T16:38:47;4.30;;;2.20;;
49392;SDS011;35268;42.642;23.308;2022-12-24T16:41:31;4.53;;;2.28;;